Time;durP1;ratioP1;P1;durP2;ratioP2;P2;SDS_P1;SDS_P2;PMS_P1;PMS_P2;Temp;Humidity;BMP_temperature;BMP_pressure;BME280_temperature;BME280_humidity;BME280_pressure;Samples;Min_cycle;Max_cycle;Signal;HPM_P1;HPM_P2
2023/06/30 00:00:12;;;;;;;;;;;22.40;61.10;;;;;;5094637;28;19920;-59
2023/06/30 00:02:38;;;;;;;;;;;22.50;61.20;;;;;;5092991;28;20010;-59
2023/06/30 00:05:05;;;;;;;;;;;22.50;61.10;;;;;;5093007;28;20264;-59
2023/06/30 00:07:30;;;;;;;;;;;22.40;61.10;;;;;;5093967;28;19920;-59
2023/06/30 00:09:56;;;;;;;;;;;22.40;61.00;;;;;;5092887;28;20014;-59
2023/06/30 00:12:21;;;;;;;;;;;22.40;61.00;;;;;;5093408;28;20044;-59
2023/06/30 00:14:47;;;;;;;;;;;22.40;61.00;;;;;;5093108;28;19920;-59
2023/06/30 00:17:12;;;;;;;;;;;22.40;61.00;;;;;;5093313;28;19920;-59
2023/06/30 00:19:38;;;;;;;;;;;22.40;61.00;;;;;;5092828;28;19920;-59
2023/06/30 00:22:03;;;;;;;;;;;22.40;61.00;;;;;;5092478;28;19927;-59
2023/06/30 00:24:29;;;;;;;;;;;22.40;61.00;;;;;;5092514;28;19920;-59
2023/06/30 00:26:54;;;;;;;;;;;22.40;61.70;;;;;;5093580;28;20018;-59
2023/06/30 00:29:20;;;;;;;;;;;22.30;61.00;;;;;;5092935;28;19920;-59
2023/06/30 00:31:45;;;;;;;;;;;22.40;60.90;;;;;;5092784;28;19927;-60
2023/06/30 00:34:11;;;;;;;;;;;22.40;60.90;;;;;;5093679;28;20015;-59
2023/06/30 00:36:36;;;;;;;;;;;22.30;60.90;;;;;;5092159;28;20007;-58
2023/06/30 00:39:02;;;;;;;;;;;22.30;60.90;;;;;;5092519;28;19920;-59
2023/06/30 00:41:28;;;;;;;;;;;22.40;60.90;;;;;;5092753;28;19973;-59
2023/06/30 00:43:53;;;;;;;;;;;22.30;60.80;;;;;;5091599;28;19920;-59
2023/06/30 00:46:19;;;;;;;;;;;22.30;60.80;;;;;;5091360;28;19927;-59
2023/06/30 00:48:44;;;;;;;;;;;22.30;60.80;;;;;;5092166;28;19927;-59
2023/06/30 00:51:11;;;;;;;;;;;22.30;60.80;;;;;;5092147;28;19920;-59
2023/06/30 00:53:36;;;;;;;;;;;22.30;60.80;;;;;;5092372;28;19946;-59
2023/06/30 00:56:02;;;;;;;;;;;22.30;60.80;;;;;;5109186;28;19920;-59
2023/06/30 00:58:27;;;;;;;;;;;22.30;60.90;;;;;;5093429;28;20379;-59
2023/06/30 01:00:58;;;;;;;;;;;22.20;60.70;;;;;;5092309;28;19982;-59
2023/06/30 01:03:28;;;;;;;;;;;22.20;60.70;;;;;;5093116;28;19920;-59
2023/06/30 01:05:57;;;;;;;;;;;22.30;60.80;;;;;;5091676;28;19947;-59
2023/06/30 01:08:29;;;;;;;;;;;22.20;60.70;;;;;;5091794;28;20386;-59
2023/06/30 01:10:55;;;;;;;;;;;22.20;61.40;;;;;;5091654;28;19920;-59
2023/06/30 01:13:22;;;;;;;;;;;22.20;60.70;;;;;;5093212;28;19931;-59
2023/06/30 01:15:48;;;;;;;;;;;22.20;60.60;;;;;;5092936;28;19920;-59
2023/06/30 01:18:15;;;;;;;;;;;22.10;60.60;;;;;;5091862;28;20011;-59
2023/06/30 01:20:41;;;;;;;;;;;22.20;60.70;;;;;;5094505;28;20023;-59
2023/06/30 01:23:14;;;;;;;;;;;22.20;60.70;;;;;;5113098;28;19931;-59
2023/06/30 01:25:39;;;;;;;;;;;22.10;60.60;;;;;;5094997;28;20011;-59
2023/06/30 01:28:05;;;;;;;;;;;22.10;60.60;;;;;;5112635;28;20459;-59
2023/06/30 01:30:31;;;;;;;;;;;22.10;60.60;;;;;;5113129;28;19924;-59
2023/06/30 01:32:58;;;;;;;;;;;22.10;60.60;;;;;;5113104;28;19945;-59
2023/06/30 01:35:24;;;;;;;;;;;22.10;60.60;;;;;;5094679;28;19923;-59
2023/06/30 01:37:49;;;;;;;;;;;22.10;60.60;;;;;;5094892;28;19927;-59
2023/06/30 01:40:15;;;;;;;;;;;22.10;60.60;;;;;;5094995;28;20348;-59
2023/06/30 01:42:40;;;;;;;;;;;22.10;60.60;;;;;;5113170;28;20350;-59
2023/06/30 01:45:07;;;;;;;;;;;22.10;60.60;;;;;;5093834;28;19924;-59
2023/06/30 01:47:33;;;;;;;;;;;22.10;60.60;;;;;;5094041;28;20002;-59
2023/06/30 01:49:58;;;;;;;;;;;22.10;60.60;;;;;;5094791;28;20007;-59
2023/06/30 01:52:24;;;;;;;;;;;22.10;60.50;;;;;;5094547;28;19927;-59
2023/06/30 01:54:50;;;;;;;;;;;22.00;60.50;;;;;;5094947;28;19920;-59
2023/06/30 01:57:15;;;;;;;;;;;22.10;60.60;;;;;;5111844;28;20394;-59
2023/06/30 01:59:41;;;;;;;;;;;22.00;60.40;;;;;;5112675;28;19924;-59
2023/06/30 02:02:06;;;;;;;;;;;22.00;60.50;;;;;;5094633;28;20268;-59
2023/06/30 02:04:32;;;;;;;;;;;22.00;60.50;;;;;;5112322;28;19924;-59
2023/06/30 02:06:57;;;;;;;;;;;22.00;60.40;;;;;;5094228;28;19927;-59
2023/06/30 02:09:23;;;;;;;;;;;22.00;60.40;;;;;;5094452;28;19943;-59
2023/06/30 02:11:48;;;;;;;;;;;22.00;60.40;;;;;;5094247;28;19967;-58
2023/06/30 02:14:14;;;;;;;;;;;22.00;60.50;;;;;;5094950;28;19919;-59
2023/06/30 02:16:39;;;;;;;;;;;22.00;60.40;;;;;;5112379;28;19927;-59
2023/06/30 02:19:05;;;;;;;;;;;21.90;60.40;;;;;;5094620;28;19953;-59
2023/06/30 02:21:30;;;;;;;;;;;22.00;60.40;;;;;;5112082;28;19971;-59
2023/06/30 02:23:56;;;;;;;;;;;22.00;60.40;;;;;;5112521;28;19927;-59
2023/06/30 02:26:21;;;;;;;;;;;22.00;60.40;;;;;;5093695;28;19942;-59
2023/06/30 02:28:47;;;;;;;;;;;21.90;60.40;;;;;;5093709;28;20013;-59
2023/06/30 02:31:12;;;;;;;;;;;21.90;60.40;;;;;;5094316;28;19919;-59
2023/06/30 02:33:38;;;;;;;;;;;21.90;60.40;;;;;;5094126;28;19923;-59
2023/06/30 02:36:04;;;;;;;;;;;21.90;60.40;;;;;;5094069;28;19920;-59
2023/06/30 02:38:30;;;;;;;;;;;21.90;60.40;;;;;;5094551;28;19926;-59
2023/06/30 02:40:56;;;;;;;;;;;21.90;60.40;;;;;;5112130;28;19924;-59
2023/06/30 02:43:21;;;;;;;;;;;21.90;60.40;;;;;;5094013;28;19945;-59
2023/06/30 02:45:47;;;;;;;;;;;21.90;60.40;;;;;;5127641;28;20299;-59
2023/06/30 02:48:12;;;;;;;;;;;21.90;60.40;;;;;;5093443;28;20271;-59
2023/06/30 02:50:38;;;;;;;;;;;21.80;60.30;;;;;;5094149;28;19926;-59
2023/06/30 02:53:03;;;;;;;;;;;21.80;60.30;;;;;;5127766;28;19924;-59
2023/06/30 02:55:29;;;;;;;;;;;21.80;60.30;;;;;;5112247;28;19919;-59
2023/06/30 02:57:56;;;;;;;;;;;21.80;60.30;;;;;;5111906;28;20008;-59
2023/06/30 03:00:21;;;;;;;;;;;21.80;60.30;;;;;;5112094;28;20124;-59
2023/06/30 03:02:47;;;;;;;;;;;21.80;60.30;;;;;;5093990;28;19931;-59
2023/06/30 03:05:13;;;;;;;;;;;21.80;61.00;;;;;;5093903;28;19928;-59
2023/06/30 03:07:38;;;;;;;;;;;21.80;60.30;;;;;;5127859;27;19962;-59
2023/06/30 03:10:04;;;;;;;;;;;21.80;60.20;;;;;;5131562;27;19924;-59
2023/06/30 03:12:30;;;;;;;;;;;21.80;60.30;;;;;;5131778;27;20283;-59
2023/06/30 03:14:55;;;;;;;;;;;21.80;60.30;;;;;;5097802;28;20298;-59
2023/06/30 03:17:20;;;;;;;;;;;21.80;60.20;;;;;;5131411;27;20025;-59
2023/06/30 03:19:46;;;;;;;;;;;21.80;60.30;;;;;;5097872;28;20327;-59
2023/06/30 03:22:11;;;;;;;;;;;21.70;60.20;;;;;;5115168;28;19924;-59
2023/06/30 03:24:38;;;;;;;;;;;21.70;60.20;;;;;;5131309;27;20340;-59
2023/06/30 03:27:04;;;;;;;;;;;21.70;60.20;;;;;;5097142;28;19920;-59
2023/06/30 03:29:29;;;;;;;;;;;21.70;60.20;;;;;;5097076;28;20393;-59
2023/06/30 03:31:55;;;;;;;;;;;21.70;60.20;;;;;;5097087;28;20416;-59
2023/06/30 03:34:20;;;;;;;;;;;21.70;60.20;;;;;;5097475;28;19967;-59
2023/06/30 03:36:46;;;;;;;;;;;21.70;60.20;;;;;;5097165;28;20041;-59
2023/06/30 03:39:11;;;;;;;;;;;21.70;60.20;;;;;;5131525;27;20002;-59
2023/06/30 03:41:37;;;;;;;;;;;21.60;60.10;;;;;;5097067;28;19931;-59
2023/06/30 03:44:02;;;;;;;;;;;21.60;60.10;;;;;;5115088;28;19977;-59
2023/06/30 03:46:28;;;;;;;;;;;21.70;60.20;;;;;;5096832;28;20378;-59
2023/06/30 03:48:53;;;;;;;;;;;21.70;60.20;;;;;;5096378;28;19920;-59
2023/06/30 03:51:19;;;;;;;;;;;21.60;60.10;;;;;;5097056;28;20023;-59
2023/06/30 03:53:44;;;;;;;;;;;21.70;60.10;;;;;;5096885;28;19919;-59
2023/06/30 03:56:10;;;;;;;;;;;21.60;60.00;;;;;;5097056;28;20426;-59
2023/06/30 03:58:35;;;;;;;;;;;21.60;60.00;;;;;;5114975;28;19968;-59
2023/06/30 04:01:01;;;;;;;;;;;21.60;60.10;;;;;;5096859;28;20143;-59
2023/06/30 04:03:26;;;;;;;;;;;21.60;60.00;;;;;;5115086;28;19926;-59
2023/06/30 04:05:52;;;;;;;;;;;21.60;60.10;;;;;;5096598;28;19920;-59
2023/06/30 04:08:18;;;;;;;;;;;21.60;60.10;;;;;;5096018;28;20014;-59
2023/06/30 04:10:43;;;;;;;;;;;21.60;60.10;;;;;;5114288;28;20007;-59
2023/06/30 04:13:09;;;;;;;;;;;21.60;60.00;;;;;;5114493;28;19923;-59
2023/06/30 04:15:35;;;;;;;;;;;21.50;60.00;;;;;;5114876;28;19927;-59
2023/06/30 04:18:01;;;;;;;;;;;21.60;60.10;;;;;;5096313;28;19923;-59
2023/06/30 04:20:26;;;;;;;;;;;21.50;60.00;;;;;;5096148;28;19923;-57
2023/06/30 04:22:52;;;;;;;;;;;21.50;60.00;;;;;;5096298;28;20067;-59
2023/06/30 04:25:17;;;;;;;;;;;21.60;60.00;;;;;;5114106;28;19942;-59
2023/06/30 04:27:43;;;;;;;;;;;21.50;60.00;;;;;;5114267;28;19927;-59
2023/06/30 04:30:08;;;;;;;;;;;21.50;60.00;;;;;;5096120;28;19924;-59
2023/06/30 04:32:34;;;;;;;;;;;21.50;60.00;;;;;;5096230;28;20373;-59
2023/06/30 04:35:00;;;;;;;;;;;21.50;60.00;;;;;;5096244;28;19936;-59
2023/06/30 04:37:30;;;;;;;;;;;21.50;60.00;;;;;;5095127;28;19984;-59
2023/06/30 04:39:56;;;;;;;;;;;21.40;60.00;;;;;;5114000;28;19920;-59
2023/06/30 04:42:22;;;;;;;;;;;21.50;60.00;;;;;;5095815;28;19923;-59
2023/06/30 04:44:47;;;;;;;;;;;21.50;60.00;;;;;;5095925;28;20052;-59
2023/06/30 04:47:15;;;;;;;;;;;21.50;60.00;;;;;;5113838;28;19992;-59
2023/06/30 04:49:41;;;;;;;;;;;21.40;60.00;;;;;;5113682;28;19927;-59
2023/06/30 04:52:06;;;;;;;;;;;21.50;60.00;;;;;;5113983;28;19977;-59
2023/06/30 04:54:32;;;;;;;;;;;21.50;60.00;;;;;;5096094;28;19920;-61
2023/06/30 04:57:02;;;;;;;;;;;21.50;60.00;;;;;;5114853;28;19924;-59
2023/06/30 04:59:27;;;;;;;;;;;21.50;59.90;;;;;;5095833;28;19919;-59
2023/06/30 05:01:53;;;;;;;;;;;21.40;59.90;;;;;;5113575;28;20264;-59
2023/06/30 05:04:18;;;;;;;;;;;21.40;59.90;;;;;;5095635;28;19969;-59
2023/06/30 05:06:44;;;;;;;;;;;21.40;60.00;;;;;;5094950;28;20286;-59
2023/06/30 05:09:09;;;;;;;;;;;21.40;59.90;;;;;;5129524;27;20340;-59
2023/06/30 05:11:35;;;;;;;;;;;21.40;59.90;;;;;;5094917;28;20097;-59
2023/06/30 05:14:00;;;;;;;;;;;21.40;59.90;;;;;;5113608;28;19923;-59
2023/06/30 05:16:26;;;;;;;;;;;21.40;59.90;;;;;;5113791;28;19920;-59
2023/06/30 05:18:51;;;;;;;;;;;21.40;59.90;;;;;;5113290;28;19920;-59
2023/06/30 05:21:17;;;;;;;;;;;21.40;59.90;;;;;;5129182;27;20363;-59
2023/06/30 05:23:43;;;;;;;;;;;21.40;59.90;;;;;;5095488;28;20290;-59
2023/06/30 05:26:09;;;;;;;;;;;21.30;59.90;;;;;;5112866;28;20363;-59
2023/06/30 05:28:35;;;;;;;;;;;21.40;59.90;;;;;;5129022;27;19968;-59
2023/06/30 05:31:00;;;;;;;;;;;21.40;60.60;;;;;;5093984;28;20327;-59
2023/06/30 05:33:26;;;;;;;;;;;21.40;59.90;;;;;;5129121;27;19931;-59
2023/06/30 05:35:51;;;;;;;;;;;21.40;59.90;;;;;;5094967;28;19961;-59
2023/06/30 05:38:16;;;;;;;;;;;21.40;59.90;;;;;;5094679;28;19983;-59
2023/06/30 05:40:42;;;;;;;;;;;21.40;59.90;;;;;;5112336;28;20427;-59
2023/06/30 05:43:08;;;;;;;;;;;21.40;59.80;;;;;;5094803;28;19928;-59
2023/06/30 05:45:33;;;;;;;;;;;21.30;59.80;;;;;;5094775;28;19923;-59
2023/06/30 05:47:58;;;;;;;;;;;21.40;59.80;;;;;;5112553;28;19920;-59
2023/06/30 05:50:25;;;;;;;;;;;21.40;59.90;;;;;;5094504;28;19968;-59
2023/06/30 05:52:51;;;;;;;;;;;21.30;59.80;;;;;;5094842;28;19930;-59
2023/06/30 05:55:16;;;;;;;;;;;21.40;59.80;;;;;;5093697;28;19919;-59
2023/06/30 05:57:42;;;;;;;;;;;21.30;59.80;;;;;;5094417;28;19919;-59
2023/06/30 06:00:07;;;;;;;;;;;21.30;59.80;;;;;;5094625;28;19965;-59
2023/06/30 06:02:33;;;;;;;;;;;21.30;59.80;;;;;;5094433;28;20298;-59
2023/06/30 06:04:59;;;;;;;;;;;21.30;59.80;;;;;;5093560;28;19920;-59
2023/06/30 06:07:25;;;;;;;;;;;21.30;59.80;;;;;;5093986;28;19920;-62
2023/06/30 06:09:50;;;;;;;;;;;21.30;59.70;;;;;;5091065;28;20319;-62
2023/06/30 06:12:15;;;;;;;;;;;21.30;59.60;;;;;;5092666;28;20374;-63
2023/06/30 06:14:41;;;;;;;;;;;21.30;59.70;;;;;;5110389;28;19934;-61
2023/06/30 06:17:07;;;;;;;;;;;21.30;60.50;;;;;;5110804;28;20362;-61
2023/06/30 06:19:33;;;;;;;;;;;21.30;59.70;;;;;;5090590;28;20082;-61
2023/06/30 06:22:00;;;;;;;;;;;21.30;59.70;;;;;;5091382;28;19927;-63
2023/06/30 06:24:25;;;;;;;;;;;21.30;59.70;;;;;;5083631;28;19920;-58
2023/06/30 06:26:51;;;;;;;;;;;21.40;59.80;;;;;;5090292;28;19935;-58
2023/06/30 06:29:21;;;;;;;;;;;21.40;59.60;;;;;;5108962;28;19963;-58
2023/06/30 06:31:49;;;;;;;;;;;21.40;59.50;;;;;;5091752;28;20028;-58
2023/06/30 06:34:14;;;;;;;;;;;21.40;59.20;;;;;;5091741;28;20413;-57
2023/06/30 06:36:40;;;;;;;;;;;21.40;59.30;;;;;;5092371;28;19919;-58
2023/06/30 06:39:05;;;;;;;;;;;21.40;59.20;;;;;;5110107;28;19928;-58
2023/06/30 06:41:31;;;;;;;;;;;21.40;59.10;;;;;;5110137;28;20346;-58
2023/06/30 06:43:57;;;;;;;;;;;21.40;59.00;;;;;;5094663;28;19920;-58
2023/06/30 06:46:22;;;;;;;;;;;21.40;58.90;;;;;;5116213;27;20018;-58
2023/06/30 06:48:48;;;;;;;;;;;21.50;59.00;;;;;;5077224;28;19972;-58
2023/06/30 06:51:13;;;;;;;;;;;21.40;58.90;;;;;;5088087;28;19927;-58
2023/06/30 06:53:39;;;;;;;;;;;21.40;58.80;;;;;;5112558;28;20550;-58
2023/06/30 06:56:04;;;;;;;;;;;21.40;58.80;;;;;;5111001;28;19920;-58
2023/06/30 06:58:31;;;;;;;;;;;21.40;58.70;;;;;;5088329;28;19928;-58
2023/06/30 07:00:56;;;;;;;;;;;21.40;58.60;;;;;;5102211;27;19936;-58
2023/06/30 07:03:22;;;;;;;;;;;21.40;58.50;;;;;;5089757;28;19920;-58
2023/06/30 07:05:47;;;;;;;;;;;21.40;58.60;;;;;;5089031;28;19924;-57
2023/06/30 07:08:14;;;;;;;;;;;21.50;58.60;;;;;;5111836;28;20290;-57
2023/06/30 07:10:40;;;;;;;;;;;21.40;58.60;;;;;;5106678;28;19998;-58
2023/06/30 07:13:06;;;;;;;;;;;21.40;58.60;;;;;;5091108;28;20442;-58
2023/06/30 07:15:32;;;;;;;;;;;21.40;58.50;;;;;;5090772;28;20026;-58
2023/06/30 07:17:58;;;;;;;;;;;21.50;58.60;;;;;;5095498;28;19934;-58
2023/06/30 07:20:23;;;;;;;;;;;21.50;58.60;;;;;;5106336;27;20640;-58
2023/06/30 07:22:50;;;;;;;;;;;21.40;58.50;;;;;;5107464;28;19927;-58
2023/06/30 07:25:15;;;;;;;;;;;21.40;58.50;;;;;;5088799;28;20448;-59
2023/06/30 07:27:49;;;;;;;;;;;21.40;58.50;;;;;;5095193;28;19924;-59
2023/06/30 07:30:14;;;;;;;;;;;21.50;58.70;;;;;;5090533;27;20532;-59
2023/06/30 07:32:41;;;;;;;;;;;21.40;58.50;;;;;;5091645;28;19920;-61
2023/06/30 07:35:06;;;;;;;;;;;21.50;58.60;;;;;;5111653;28;19942;-60
2023/06/30 07:37:32;;;;;;;;;;;21.40;58.50;;;;;;5095094;28;19920;-58
2023/06/30 07:39:58;;;;;;;;;;;21.50;58.60;;;;;;5116877;27;19920;-58
2023/06/30 07:42:23;;;;;;;;;;;21.50;58.50;;;;;;5115246;27;19923;-59
2023/06/30 07:44:49;;;;;;;;;;;21.50;58.40;;;;;;5133952;27;19923;-58
2023/06/30 07:47:16;;;;;;;;;;;21.50;58.40;;;;;;5114574;27;19919;-58
2023/06/30 07:49:41;;;;;;;;;;;21.40;58.30;;;;;;5115188;27;19923;-58
2023/06/30 07:52:07;;;;;;;;;;;21.40;58.20;;;;;;5115267;27;19920;-59
2023/06/30 07:54:32;;;;;;;;;;;21.50;58.30;;;;;;5114959;27;20329;-58
2023/06/30 07:56:57;;;;;;;;;;;21.50;58.20;;;;;;5114865;27;19925;-58
2023/06/30 07:59:23;;;;;;;;;;;21.50;58.20;;;;;;5107651;28;19927;-59
2023/06/30 08:01:48;;;;;;;;;;;21.40;58.00;;;;;;5083791;28;19930;-59
2023/06/30 08:04:14;;;;;;;;;;;21.50;58.30;;;;;;5102391;28;19942;-59
2023/06/30 08:06:39;;;;;;;;;;;21.50;58.30;;;;;;5115369;27;20466;-59
2023/06/30 08:09:05;;;;;;;;;;;21.50;58.20;;;;;;5099940;28;19965;-58
2023/06/30 08:11:30;;;;;;;;;;;21.50;58.20;;;;;;5084157;28;19924;-59
2023/06/30 08:13:56;;;;;;;;;;;21.50;58.10;;;;;;5103766;28;19919;-59
2023/06/30 08:16:22;;;;;;;;;;;21.50;58.20;;;;;;5093842;28;20026;-59
2023/06/30 08:18:48;;;;;;;;;;;21.50;58.00;;;;;;5113662;28;19945;-59
2023/06/30 08:21:14;;;;;;;;;;;21.60;58.00;;;;;;5095522;28;19924;-59
2023/06/30 08:23:39;;;;;;;;;;;21.50;58.70;;;;;;5091764;28;19919;-59
2023/06/30 08:26:05;;;;;;;;;;;21.50;57.90;;;;;;5086191;28;19919;-58
2023/06/30 08:28:30;;;;;;;;;;;21.60;57.90;;;;;;5097745;28;19924;-59
2023/06/30 08:30:56;;;;;;;;;;;21.60;57.90;;;;;;5079752;28;19920;-59
2023/06/30 08:33:25;;;;;;;;;;;21.60;57.80;;;;;;5080080;28;19919;-59
2023/06/30 08:35:50;;;;;;;;;;;21.60;57.80;;;;;;5083597;28;20061;-58
2023/06/30 08:38:16;;;;;;;;;;;21.70;57.70;;;;;;5093082;28;20048;-59
2023/06/30 08:40:42;;;;;;;;;;;21.70;57.70;;;;;;5111843;28;20019;-59
2023/06/30 08:43:11;;;;;;;;;;;21.60;57.50;;;;;;5109086;28;19966;-59
2023/06/30 08:45:38;;;;;;;;;;;21.70;57.50;;;;;;5108546;27;19919;-58
2023/06/30 08:48:05;;;;;;;;;;;21.70;57.30;;;;;;5095472;27;20345;-59
2023/06/30 08:50:32;;;;;;;;;;;21.70;57.10;;;;;;5094297;27;20272;-58
2023/06/30 08:52:58;;;;;;;;;;;21.70;57.20;;;;;;5115653;27;19945;-61
2023/06/30 08:55:24;;;;;;;;;;;21.80;57.20;;;;;;5099680;28;19950;-58
2023/06/30 08:57:50;;;;;;;;;;;21.90;57.00;;;;;;5091931;27;21456;-59
2023/06/30 09:00:16;;;;;;;;;;;21.90;56.90;;;;;;5093646;28;19924;-59
2023/06/30 09:02:42;;;;;;;;;;;22.00;56.70;;;;;;5112319;28;20332;-58
2023/06/30 09:05:08;;;;;;;;;;;22.00;56.30;;;;;;5087352;28;19926;-59
2023/06/30 09:07:38;;;;;;;;;;;22.00;56.20;;;;;;5078134;28;19927;-58
2023/06/30 09:10:05;;;;;;;;;;;22.10;56.00;;;;;;5113482;27;19931;-59
2023/06/30 09:12:31;;;;;;;;;;;22.10;55.90;;;;;;5095809;28;20417;-58
2023/06/30 09:14:59;;;;;;;;;;;22.10;55.80;;;;;;5089224;28;20022;-59
2023/06/30 09:17:24;;;;;;;;;;;22.20;55.70;;;;;;5073262;28;19924;-60
2023/06/30 09:19:50;;;;;;;;;;;22.20;55.60;;;;;;5101666;27;19926;-59
2023/06/30 09:22:15;;;;;;;;;;;22.20;55.70;;;;;;5101653;27;19985;-60
2023/06/30 09:24:41;;;;;;;;;;;22.20;55.70;;;;;;5082071;28;20413;-60
2023/06/30 09:27:06;;;;;;;;;;;22.30;55.70;;;;;;5098623;28;19920;-60
2023/06/30 09:29:34;;;;;;;;;;;22.20;55.50;;;;;;5079746;28;20386;-60
2023/06/30 09:32:01;;;;;;;;;;;22.30;55.10;;;;;;5082109;28;19924;-61
2023/06/30 09:34:27;;;;;;;;;;;22.30;54.90;;;;;;5093689;28;19974;-60
2023/06/30 09:36:54;;;;;;;;;;;22.30;54.80;;;;;;5094178;28;19955;-61
2023/06/30 09:39:20;;;;;;;;;;;22.40;54.80;;;;;;5093986;28;20160;-60
2023/06/30 09:41:46;;;;;;;;;;;22.30;54.70;;;;;;5075495;28;19924;-61
2023/06/30 09:44:13;;;;;;;;;;;22.40;54.30;;;;;;5092797;28;19920;-61
2023/06/30 09:49:26;;;;;;;;;;;22.40;54.30;;;;;;5088393;28;19916;-60
2023/06/30 09:51:54;;;;;;;;;;;22.40;54.20;;;;;;5070693;28;20417;-59
2023/06/30 09:54:20;;;;;;;;;;;22.40;54.20;;;;;;5081562;28;19921;-60
2023/06/30 09:56:45;;;;;;;;;;;22.40;54.20;;;;;;5079328;28;19929;-59
2023/06/30 09:59:11;;;;;;;;;;;22.50;54.40;;;;;;5074137;28;20015;-59
2023/06/30 10:01:37;;;;;;;;;;;22.40;54.20;;;;;;5078088;28;20145;-60
2023/06/30 10:04:02;;;;;;;;;;;22.40;54.20;;;;;;5077514;28;20291;-62
2023/06/30 10:06:28;;;;;;;;;;;22.40;54.20;;;;;;5088718;28;20341;-60
2023/06/30 10:08:56;;;;;;;;;;;22.50;54.10;;;;;;5082918;28;20362;-60
2023/06/30 10:11:22;;;;;;;;;;;22.50;54.10;;;;;;5085729;28;19920;-60
2023/06/30 10:13:49;;;;;;;;;;;22.40;54.10;;;;;;5087423;28;20383;-60
2023/06/30 10:16:16;;;;;;;;;;;22.40;54.20;;;;;;5086567;28;19920;-60
2023/06/30 10:18:43;;;;;;;;;;;22.40;54.20;;;;;;5086994;28;19931;-60
2023/06/30 10:21:08;;;;;;;;;;;22.40;54.30;;;;;;5088075;28;19927;-60
2023/06/30 10:23:34;;;;;;;;;;;22.40;54.40;;;;;;5088605;28;20284;-60
2023/06/30 10:26:01;;;;;;;;;;;22.40;54.30;;;;;;5088002;28;20367;-60
2023/06/30 10:28:27;;;;;;;;;;;22.40;54.40;;;;;;5087302;28;19931;-60
2023/06/30 10:30:52;;;;;;;;;;;22.30;54.30;;;;;;5087128;28;19920;-61
2023/06/30 10:33:18;;;;;;;;;;;22.30;54.30;;;;;;5088102;28;20266;-60
2023/06/30 10:35:44;;;;;;;;;;;22.30;54.30;;;;;;5088596;28;19938;-60
2023/06/30 10:38:11;;;;;;;;;;;22.30;55.10;;;;;;5088889;28;19924;-60
2023/06/30 10:40:36;;;;;;;;;;;22.30;54.30;;;;;;5087491;28;20389;-60
2023/06/30 10:43:05;;;;;;;;;;;22.30;55.10;;;;;;5087423;28;19920;-60
2023/06/30 10:45:33;;;;;;;;;;;22.30;54.40;;;;;;5068485;28;19928;-60
2023/06/30 10:48:06;;;;;;;;;;;22.30;54.30;;;;;;5066478;28;19924;-60
2023/06/30 10:50:39;;;;;;;;;;;22.30;54.30;;;;;;5067815;28;19921;-60
2023/06/30 10:53:06;;;;;;;;;;;22.20;54.30;;;;;;5067723;28;19920;-60
2023/06/30 10:55:31;;;;;;;;;;;22.30;54.30;;;;;;5083764;28;19921;-60
2023/06/30 10:57:58;;;;;;;;;;;22.20;54.30;;;;;;5067878;28;19924;-60
2023/06/30 11:00:26;;;;;;;;;;;22.30;54.30;;;;;;5072321;28;19920;-60
2023/06/30 11:05:33;;;;;;;;;;;22.20;54.40;;;;;;5089785;28;20283;-60
2023/06/30 11:10:45;;;;;;;;;;;22.30;54.30;;;;;;5109460;27;19912;-60
2023/06/30 11:13:10;;;;;;;;;;;22.20;54.30;;;;;;5108244;28;19967;-60
2023/06/30 11:18:19;;;;;;;;;;;22.20;54.30;;;;;;5109048;27;19918;-60
2023/06/30 11:21:04;;;;;;;;;;;22.20;54.20;;;;;;5106782;28;19924;-60
2023/06/30 11:23:36;;;;;;;;;;;22.20;54.20;;;;;;5103090;28;19920;-60
2023/06/30 11:26:17;;;;;;;;;;;22.30;54.10;;;;;;5108372;28;19942;-60
2023/06/30 11:28:44;;;;;;;;;;;22.30;53.90;;;;;;5093647;28;19963;-59
2023/06/30 11:31:11;;;;;;;;;;;22.30;53.80;;;;;;5106235;28;19920;-61
2023/06/30 11:33:40;;;;;;;;;;;22.40;53.60;;;;;;5107132;28;19967;-60
2023/06/30 11:36:11;;;;;;;;;;;22.40;53.40;;;;;;5107132;28;20015;-60
2023/06/30 11:38:51;;;;;;;;;;;22.40;53.40;;;;;;5108101;28;19927;-60
2023/06/30 11:41:18;;;;;;;;;;;22.50;53.40;;;;;;5106406;28;19920;-62
2023/06/30 11:43:47;;;;;;;;;;;22.40;53.10;;;;;;5108312;28;19924;-61
2023/06/30 11:46:13;;;;;;;;;;;22.50;53.10;;;;;;5107369;28;19920;-61
2023/06/30 11:48:39;;;;;;;;;;;22.40;52.70;;;;;;5107368;28;20011;-61
2023/06/30 11:51:05;;;;;;;;;;;22.50;52.90;;;;;;5107827;28;19999;-60
2023/06/30 11:53:31;;;;;;;;;;;22.50;53.00;;;;;;5106896;28;19927;-60
2023/06/30 11:55:56;;;;;;;;;;;22.50;52.90;;;;;;5107154;28;19920;-60
2023/06/30 11:58:22;;;;;;;;;;;22.50;52.90;;;;;;5108320;28;20264;-61
2023/06/30 12:00:47;;;;;;;;;;;22.50;52.80;;;;;;5107111;28;19920;-61
2023/06/30 12:03:14;;;;;;;;;;;22.60;52.90;;;;;;5107176;28;20389;-59
2023/06/30 12:05:40;;;;;;;;;;;22.60;52.80;;;;;;5106774;28;19920;-61
2023/06/30 12:08:06;;;;;;;;;;;22.60;52.80;;;;;;5108336;28;19926;-61
2023/06/30 12:10:36;;;;;;;;;;;22.60;52.80;;;;;;5106608;28;19942;-61
2023/06/30 12:13:05;;;;;;;;;;;22.70;52.60;;;;;;5129510;27;19930;-60
2023/06/30 12:15:31;;;;;;;;;;;22.70;52.50;;;;;;5106286;28;19920;-60
2023/06/30 12:17:57;;;;;;;;;;;22.70;52.10;;;;;;5124979;27;20234;-59
2023/06/30 12:20:31;;;;;;;;;;;22.70;52.30;;;;;;5127844;28;20379;-60
2023/06/30 12:22:57;;;;;;;;;;;22.70;52.30;;;;;;5109745;28;19976;-60
2023/06/30 12:25:26;;;;;;;;;;;22.70;52.20;;;;;;5128413;28;19920;-60
2023/06/30 12:27:53;;;;;;;;;;;22.70;52.20;;;;;;5124506;28;19966;-59
2023/06/30 12:30:19;;;;;;;;;;;22.80;52.20;;;;;;5114801;28;19931;-61
2023/06/30 12:32:45;;;;;;;;;;;22.70;52.00;;;;;;5096137;28;19969;-59
2023/06/30 12:35:11;;;;;;;;;;;22.70;52.00;;;;;;5094484;28;19942;-61
2023/06/30 12:37:36;;;;;;;;;;;22.70;51.80;;;;;;5113573;28;19976;-62
2023/06/30 12:40:04;;;;;;;;;;;22.80;51.90;;;;;;5114457;28;20340;-61
2023/06/30 12:42:31;;;;;;;;;;;22.80;51.90;;;;;;5095109;28;20355;-60
2023/06/30 12:44:56;;;;;;;;;;;22.80;51.50;;;;;;5095984;28;19931;-61
2023/06/30 12:47:22;;;;;;;;;;;22.80;51.70;;;;;;5096280;28;20048;-61
2023/06/30 12:49:48;;;;;;;;;;;22.80;51.90;;;;;;5095898;28;19931;-60
2023/06/30 12:52:15;;;;;;;;;;;22.80;51.80;;;;;;5095384;28;20371;-60
2023/06/30 12:54:41;;;;;;;;;;;22.90;51.80;;;;;;5094843;28;19920;-61
2023/06/30 12:57:07;;;;;;;;;;;22.90;51.70;;;;;;5114125;28;20397;-60
2023/06/30 12:59:33;;;;;;;;;;;22.90;51.70;;;;;;5096054;28;19919;-60
2023/06/30 13:01:59;;;;;;;;;;;22.90;51.70;;;;;;5113226;28;19934;-61
2023/06/30 13:04:24;;;;;;;;;;;22.90;51.60;;;;;;5114213;28;19919;-60
2023/06/30 13:06:50;;;;;;;;;;;22.90;51.50;;;;;;5093342;28;19920;-60
2023/06/30 13:09:15;;;;;;;;;;;22.90;51.50;;;;;;5089232;28;20003;-60
2023/06/30 13:11:41;;;;;;;;;;;23.00;51.60;;;;;;5089093;28;20383;-61
2023/06/30 13:14:07;;;;;;;;;;;23.00;51.60;;;;;;5112922;28;19920;-60
2023/06/30 13:16:32;;;;;;;;;;;23.00;51.50;;;;;;5095019;28;20382;-60
2023/06/30 13:18:58;;;;;;;;;;;23.00;51.50;;;;;;5095469;28;19924;-60
2023/06/30 13:21:24;;;;;;;;;;;23.00;51.40;;;;;;5113378;28;20007;-60
2023/06/30 13:23:50;;;;;;;;;;;23.00;51.40;;;;;;5095768;28;19962;-59
2023/06/30 13:26:15;;;;;;;;;;;23.00;51.40;;;;;;5095283;28;19920;-60
2023/06/30 13:28:41;;;;;;;;;;;23.00;51.40;;;;;;5095249;28;20641;-62
2023/06/30 13:31:06;;;;;;;;;;;23.00;51.30;;;;;;5090569;28;19928;-59
2023/06/30 13:33:32;;;;;;;;;;;23.00;51.00;;;;;;5095245;28;20382;-60
2023/06/30 13:35:58;;;;;;;;;;;23.10;51.30;;;;;;5112148;28;19963;-60
2023/06/30 13:38:23;;;;;;;;;;;23.00;51.20;;;;;;5095901;28;19920;-59
2023/06/30 13:40:49;;;;;;;;;;;23.10;51.20;;;;;;5112932;28;20425;-60
2023/06/30 13:43:14;;;;;;;;;;;23.10;51.10;;;;;;5094831;28;19976;-59
2023/06/30 13:45:40;;;;;;;;;;;23.10;51.10;;;;;;5112271;27;19927;-61
2023/06/30 13:48:06;;;;;;;;;;;23.10;51.10;;;;;;5113679;27;19952;-61
2023/06/30 13:50:32;;;;;;;;;;;23.20;51.10;;;;;;5095918;28;20223;-60
2023/06/30 13:52:58;;;;;;;;;;;23.20;50.90;;;;;;5112603;28;20456;-59
2023/06/30 13:55:24;;;;;;;;;;;23.20;50.80;;;;;;5093603;28;19924;-59
2023/06/30 13:57:50;;;;;;;;;;;23.20;50.90;;;;;;5112814;28;20331;-60
2023/06/30 14:00:16;;;;;;;;;;;23.20;50.80;;;;;;5093845;28;20166;-60
2023/06/30 14:02:42;;;;;;;;;;;23.20;50.90;;;;;;5086484;28;19927;-60
2023/06/30 14:05:08;;;;;;;;;;;23.20;50.90;;;;;;5095931;28;19919;-60
2023/06/30 14:07:33;;;;;;;;;;;23.20;50.80;;;;;;5090539;28;19927;-60
2023/06/30 14:09:59;;;;;;;;;;;23.20;50.70;;;;;;5091880;28;19930;-61
2023/06/30 14:12:24;;;;;;;;;;;23.10;50.50;;;;;;5113594;28;19923;-60
2023/06/30 14:14:50;;;;;;;;;;;23.20;51.30;;;;;;5093597;28;19978;-60
2023/06/30 14:17:16;;;;;;;;;;;23.10;50.40;;;;;;5094888;28;20184;-61
2023/06/30 14:19:41;;;;;;;;;;;23.10;50.40;;;;;;5086948;28;20465;-60